sensor_id;sensor_type;location;lat;lon;timestamp;P1;durP1;ratioP1;P2;durP2;ratioP2
24585;SDS011;12743;52.262;6.172;2022-08-21T00:01:55;8.77;;;3.50;;
24585;SDS011;12743;52.262;6.172;2022-08-21T00:04:20;10.32;;;3.70;;
24585;SDS011;12743;52.262;6.172;2022-08-21T00:06:46;7.70;;;3.20;;
24585;SDS011;12743;52.262;6.172;2022-08-21T00:09:12;6.80;;;3.27;;
24585;SDS011;12743;52.262;6.172;2022-08-21T00:11:37;8.53;;;3.47;;
24585;SDS011;12743;52.262;6.172;2022-08-21T00:14:04;10.48;;;3.72;;
24585;SDS011;12743;52.262;6.172;2022-08-21T00:16:32;6.68;;;3.35;;
24585;SDS011;12743;52.262;6.172;2022-08-21T00:18:57;6.87;;;3.20;;
24585;SDS011;12743;52.262;6.172;2022-08-21T00:21:23;10.37;;;3.10;;
24585;SDS011;12743;52.262;6.172;2022-08-21T00:23:50;9.50;;;3.10;;
24585;SDS011;12743;52.262;6.172;2022-08-21T00:26:15;6.83;;;3.00;;
24585;SDS011;12743;52.262;6.172;2022-08-21T00:28:40;7.65;;;3.28;;
24585;SDS011;12743;52.262;6.172;2022-08-21T00:31:06;9.03;;;3.47;;
24585;SDS011;12743;52.262;6.172;2022-08-21T00:33:32;7.47;;;3.05;;
24585;SDS011;12743;52.262;6.172;2022-08-21T00:35:58;7.40;;;2.93;;
24585;SDS011;12743;52.262;6.172;2022-08-21T00:38:23;6.93;;;2.77;;
24585;SDS011;12743;52.262;6.172;2022-08-21T00:40:50;6.20;;;2.80;;
24585;SDS011;12743;52.262;6.172;2022-08-21T00:43:20;7.53;;;3.22;;
24585;SDS011;12743;52.262;6.172;2022-08-21T00:45:52;9.77;;;3.40;;
24585;SDS011;12743;52.262;6.172;2022-08-21T00:48:19;8.13;;;3.13;;
24585;SDS011;12743;52.262;6.172;2022-08-21T00:51:07;7.37;;;3.13;;
24585;SDS011;12743;52.262;6.172;2022-08-21T00:53:43;7.18;;;3.10;;
24585;SDS011;12743;52.262;6.172;2022-08-21T00:56:10;8.00;;;2.80;;
24585;SDS011;12743;52.262;6.172;2022-08-21T00:58:37;9.10;;;3.00;;
24585;SDS011;12743;52.262;6.172;2022-08-21T01:01:06;7.90;;;3.05;;
24585;SDS011;12743;52.262;6.172;2022-08-21T01:03:32;11.43;;;3.27;;
24585;SDS011;12743;52.262;6.172;2022-08-21T01:05:58;7.13;;;2.67;;
24585;SDS011;12743;52.262;6.172;2022-08-21T01:08:24;8.50;;;2.80;;
24585;SDS011;12743;52.262;6.172;2022-08-21T01:10:50;9.63;;;3.05;;
24585;SDS011;12743;52.262;6.172;2022-08-21T01:13:18;8.45;;;3.38;;
24585;SDS011;12743;52.262;6.172;2022-08-21T01:15:45;7.68;;;3.00;;
24585;SDS011;12743;52.262;6.172;2022-08-21T01:18:14;8.60;;;2.72;;
24585;SDS011;12743;52.262;6.172;2022-08-21T01:23:30;7.10;;;3.00;;
24585;SDS011;12743;52.262;6.172;2022-08-21T01:25:56;9.60;;;3.00;;
24585;SDS011;12743;52.262;6.172;2022-08-21T01:28:22;8.33;;;2.80;;
24585;SDS011;12743;52.262;6.172;2022-08-21T01:30:47;8.77;;;3.10;;
24585;SDS011;12743;52.262;6.172;2022-08-21T01:33:16;8.02;;;2.80;;
24585;SDS011;12743;52.262;6.172;2022-08-21T01:35:43;8.57;;;3.40;;
24585;SDS011;12743;52.262;6.172;2022-08-21T01:38:08;7.07;;;2.67;;
24585;SDS011;12743;52.262;6.172;2022-08-21T01:40:34;7.23;;;2.87;;
24585;SDS011;12743;52.262;6.172;2022-08-21T01:43:00;6.30;;;2.60;;
24585;SDS011;12743;52.262;6.172;2022-08-21T01:45:25;9.82;;;2.85;;
24585;SDS011;12743;52.262;6.172;2022-08-21T01:47:51;6.63;;;3.33;;
24585;SDS011;12743;52.262;6.172;2022-08-21T01:50:17;6.55;;;2.78;;
24585;SDS011;12743;52.262;6.172;2022-08-21T01:52:44;9.17;;;2.60;;
24585;SDS011;12743;52.262;6.172;2022-08-21T01:55:10;7.72;;;2.80;;
24585;SDS011;12743;52.262;6.172;2022-08-21T01:57:37;8.00;;;2.90;;
24585;SDS011;12743;52.262;6.172;2022-08-21T02:00:06;5.90;;;2.80;;
24585;SDS011;12743;52.262;6.172;2022-08-21T02:02:37;6.47;;;3.00;;
24585;SDS011;12743;52.262;6.172;2022-08-21T02:05:03;5.80;;;2.60;;
24585;SDS011;12743;52.262;6.172;2022-08-21T02:07:37;7.07;;;3.20;;
24585;SDS011;12743;52.262;6.172;2022-08-21T02:10:07;9.82;;;2.92;;
24585;SDS011;12743;52.262;6.172;2022-08-21T02:12:35;8.85;;;3.08;;
24585;SDS011;12743;52.262;6.172;2022-08-21T02:15:01;7.03;;;2.83;;
24585;SDS011;12743;52.262;6.172;2022-08-21T02:17:36;5.70;;;2.50;;
24585;SDS011;12743;52.262;6.172;2022-08-21T02:20:17;6.80;;;2.88;;
24585;SDS011;12743;52.262;6.172;2022-08-21T02:22:51;11.07;;;2.80;;
24585;SDS011;12743;52.262;6.172;2022-08-21T02:25:16;8.70;;;3.00;;
24585;SDS011;12743;52.262;6.172;2022-08-21T02:27:44;7.65;;;2.65;;
24585;SDS011;12743;52.262;6.172;2022-08-21T02:30:17;7.75;;;3.05;;
24585;SDS011;12743;52.262;6.172;2022-08-21T02:32:48;7.37;;;2.80;;
24585;SDS011;12743;52.262;6.172;2022-08-21T02:35:14;8.45;;;3.15;;
24585;SDS011;12743;52.262;6.172;2022-08-21T02:37:47;8.20;;;2.58;;
24585;SDS011;12743;52.262;6.172;2022-08-21T02:40:15;7.38;;;3.15;;
24585;SDS011;12743;52.262;6.172;2022-08-21T02:42:42;6.57;;;2.70;;
24585;SDS011;12743;52.262;6.172;2022-08-21T02:45:08;11.02;;;2.90;;
24585;SDS011;12743;52.262;6.172;2022-08-21T02:47:35;7.93;;;2.80;;
24585;SDS011;12743;52.262;6.172;2022-08-21T02:50:00;6.40;;;3.00;;
24585;SDS011;12743;52.262;6.172;2022-08-21T02:52:26;7.53;;;3.00;;
24585;SDS011;12743;52.262;6.172;2022-08-21T02:54:51;7.53;;;2.67;;
24585;SDS011;12743;52.262;6.172;2022-08-21T02:57:16;7.00;;;3.00;;
24585;SDS011;12743;52.262;6.172;2022-08-21T02:59:42;7.73;;;2.70;;
24585;SDS011;12743;52.262;6.172;2022-08-21T03:02:07;8.90;;;3.13;;
24585;SDS011;12743;52.262;6.172;2022-08-21T03:04:33;5.57;;;2.90;;
24585;SDS011;12743;52.262;6.172;2022-08-21T03:06:58;8.83;;;3.20;;
24585;SDS011;12743;52.262;6.172;2022-08-21T03:09:24;8.25;;;2.70;;
24585;SDS011;12743;52.262;6.172;2022-08-21T03:11:50;9.43;;;3.20;;
24585;SDS011;12743;52.262;6.172;2022-08-21T03:14:16;8.77;;;3.25;;
24585;SDS011;12743;52.262;6.172;2022-08-21T03:16:43;7.82;;;2.55;;
24585;SDS011;12743;52.262;6.172;2022-08-21T03:19:08;9.73;;;3.17;;
24585;SDS011;12743;52.262;6.172;2022-08-21T03:21:34;8.48;;;3.22;;
24585;SDS011;12743;52.262;6.172;2022-08-21T03:23:59;7.10;;;2.83;;
24585;SDS011;12743;52.262;6.172;2022-08-21T03:26:25;8.47;;;3.47;;
24585;SDS011;12743;52.262;6.172;2022-08-21T03:28:50;9.83;;;3.13;;
24585;SDS011;12743;52.262;6.172;2022-08-21T03:31:16;10.38;;;3.28;;
24585;SDS011;12743;52.262;6.172;2022-08-21T03:33:42;7.20;;;2.90;;
24585;SDS011;12743;52.262;6.172;2022-08-21T03:36:08;9.50;;;3.50;;
24585;SDS011;12743;52.262;6.172;2022-08-21T03:38:35;8.48;;;3.50;;
24585;SDS011;12743;52.262;6.172;2022-08-21T03:41:02;10.05;;;3.80;;
24585;SDS011;12743;52.262;6.172;2022-08-21T03:43:28;9.73;;;4.15;;
24585;SDS011;12743;52.262;6.172;2022-08-21T03:45:53;7.93;;;3.87;;
24585;SDS011;12743;52.262;6.172;2022-08-21T03:48:19;8.82;;;3.90;;
24585;SDS011;12743;52.262;6.172;2022-08-21T03:50:45;9.10;;;3.90;;
24585;SDS011;12743;52.262;6.172;2022-08-21T03:53:12;8.13;;;3.53;;
24585;SDS011;12743;52.262;6.172;2022-08-21T03:55:39;9.57;;;4.32;;
24585;SDS011;12743;52.262;6.172;2022-08-21T03:58:04;8.97;;;4.07;;
24585;SDS011;12743;52.262;6.172;2022-08-21T04:00:30;7.40;;;3.80;;
24585;SDS011;12743;52.262;6.172;2022-08-21T04:02:56;9.52;;;4.22;;
24585;SDS011;12743;52.262;6.172;2022-08-21T04:05:21;9.47;;;4.20;;
24585;SDS011;12743;52.262;6.172;2022-08-21T04:07:54;9.65;;;3.90;;
24585;SDS011;12743;52.262;6.172;2022-08-21T04:10:20;7.43;;;3.55;;
24585;SDS011;12743;52.262;6.172;2022-08-21T04:12:46;9.57;;;4.30;;
24585;SDS011;12743;52.262;6.172;2022-08-21T04:15:11;10.25;;;4.07;;
24585;SDS011;12743;52.262;6.172;2022-08-21T04:17:38;11.63;;;4.23;;
24585;SDS011;12743;52.262;6.172;2022-08-21T04:20:03;11.00;;;4.50;;
24585;SDS011;12743;52.262;6.172;2022-08-21T04:22:29;11.30;;;4.63;;
24585;SDS011;12743;52.262;6.172;2022-08-21T04:24:54;9.70;;;4.90;;
24585;SDS011;12743;52.262;6.172;2022-08-21T04:27:20;9.63;;;4.50;;
24585;SDS011;12743;52.262;6.172;2022-08-21T04:29:45;8.20;;;4.20;;
24585;SDS011;12743;52.262;6.172;2022-08-21T04:32:10;9.53;;;3.87;;
24585;SDS011;12743;52.262;6.172;2022-08-21T04:34:36;10.90;;;4.20;;
24585;SDS011;12743;52.262;6.172;2022-08-21T04:37:01;11.37;;;4.43;;
24585;SDS011;12743;52.262;6.172;2022-08-21T04:39:26;9.77;;;4.40;;
24585;SDS011;12743;52.262;6.172;2022-08-21T04:41:52;9.15;;;4.60;;
24585;SDS011;12743;52.262;6.172;2022-08-21T04:44:17;12.13;;;4.20;;
24585;SDS011;12743;52.262;6.172;2022-08-21T04:46:43;10.87;;;4.37;;
24585;SDS011;12743;52.262;6.172;2022-08-21T04:49:08;10.10;;;4.40;;
24585;SDS011;12743;52.262;6.172;2022-08-21T04:51:34;8.85;;;4.45;;
24585;SDS011;12743;52.262;6.172;2022-08-21T04:56:33;12.45;;;4.50;;
24585;SDS011;12743;52.262;6.172;2022-08-21T04:59:10;7.75;;;3.78;;
24585;SDS011;12743;52.262;6.172;2022-08-21T05:01:38;8.45;;;4.05;;
24585;SDS011;12743;52.262;6.172;2022-08-21T05:04:05;8.15;;;3.72;;
24585;SDS011;12743;52.262;6.172;2022-08-21T05:06:35;10.10;;;4.27;;
24585;SDS011;12743;52.262;6.172;2022-08-21T05:09:03;10.40;;;4.40;;
24585;SDS011;12743;52.262;6.172;2022-08-21T05:11:29;8.20;;;4.18;;
24585;SDS011;12743;52.262;6.172;2022-08-21T05:13:55;10.10;;;3.63;;
24585;SDS011;12743;52.262;6.172;2022-08-21T05:16:21;7.73;;;3.97;;
24585;SDS011;12743;52.262;6.172;2022-08-21T05:18:46;9.70;;;4.07;;
24585;SDS011;12743;52.262;6.172;2022-08-21T05:21:12;8.93;;;4.23;;
24585;SDS011;12743;52.262;6.172;2022-08-21T05:23:37;11.87;;;4.10;;
24585;SDS011;12743;52.262;6.172;2022-08-21T05:26:02;9.80;;;4.57;;
24585;SDS011;12743;52.262;6.172;2022-08-21T05:28:31;9.67;;;4.50;;
24585;SDS011;12743;52.262;6.172;2022-08-21T05:30:56;8.85;;;5.10;;
24585;SDS011;12743;52.262;6.172;2022-08-21T05:33:28;11.13;;;4.57;;
24585;SDS011;12743;52.262;6.172;2022-08-21T05:35:54;10.25;;;4.55;;
24585;SDS011;12743;52.262;6.172;2022-08-21T05:38:21;11.20;;;5.25;;
24585;SDS011;12743;52.262;6.172;2022-08-21T05:40:47;12.43;;;5.03;;
24585;SDS011;12743;52.262;6.172;2022-08-21T05:43:12;10.77;;;5.20;;
24585;SDS011;12743;52.262;6.172;2022-08-21T05:45:38;9.57;;;4.78;;
24585;SDS011;12743;52.262;6.172;2022-08-21T05:48:07;11.53;;;4.93;;
24585;SDS011;12743;52.262;6.172;2022-08-21T05:50:35;11.50;;;5.03;;
24585;SDS011;12743;52.262;6.172;2022-08-21T05:53:05;9.98;;;5.22;;
24585;SDS011;12743;52.262;6.172;2022-08-21T05:55:31;9.43;;;4.70;;
24585;SDS011;12743;52.262;6.172;2022-08-21T05:57:56;11.70;;;5.40;;
24585;SDS011;12743;52.262;6.172;2022-08-21T06:00:22;9.97;;;5.10;;
24585;SDS011;12743;52.262;6.172;2022-08-21T06:02:48;10.52;;;5.10;;
24585;SDS011;12743;52.262;6.172;2022-08-21T06:05:15;9.60;;;4.90;;
24585;SDS011;12743;52.262;6.172;2022-08-21T06:07:41;11.43;;;5.50;;
24585;SDS011;12743;52.262;6.172;2022-08-21T06:10:07;13.18;;;6.25;;
24585;SDS011;12743;52.262;6.172;2022-08-21T06:12:32;11.60;;;5.17;;
24585;SDS011;12743;52.262;6.172;2022-08-21T06:14:58;10.13;;;4.93;;
24585;SDS011;12743;52.262;6.172;2022-08-21T06:17:23;12.27;;;5.70;;
24585;SDS011;12743;52.262;6.172;2022-08-21T06:19:52;13.30;;;6.03;;
24585;SDS011;12743;52.262;6.172;2022-08-21T06:22:18;10.80;;;5.90;;
24585;SDS011;12743;52.262;6.172;2022-08-21T06:24:44;11.95;;;5.55;;
24585;SDS011;12743;52.262;6.172;2022-08-21T06:27:09;11.67;;;5.60;;
24585;SDS011;12743;52.262;6.172;2022-08-21T06:29:35;14.07;;;6.00;;
24585;SDS011;12743;52.262;6.172;2022-08-21T06:32:01;11.10;;;5.47;;
24585;SDS011;12743;52.262;6.172;2022-08-21T06:34:27;11.38;;;5.65;;
24585;SDS011;12743;52.262;6.172;2022-08-21T06:36:52;12.87;;;5.50;;
24585;SDS011;12743;52.262;6.172;2022-08-21T06:39:18;11.95;;;5.78;;
24585;SDS011;12743;52.262;6.172;2022-08-21T06:41:44;11.57;;;5.17;;
24585;SDS011;12743;52.262;6.172;2022-08-21T06:44:09;9.77;;;5.30;;
24585;SDS011;12743;52.262;6.172;2022-08-21T06:46:35;13.87;;;5.30;;
24585;SDS011;12743;52.262;6.172;2022-08-21T06:49:01;9.93;;;4.77;;
24585;SDS011;12743;52.262;6.172;2022-08-21T06:51:26;12.35;;;5.15;;
24585;SDS011;12743;52.262;6.172;2022-08-21T06:53:52;8.68;;;5.40;;
24585;SDS011;12743;52.262;6.172;2022-08-21T06:56:18;11.80;;;5.83;;
24585;SDS011;12743;52.262;6.172;2022-08-21T06:58:44;11.70;;;5.22;;
24585;SDS011;12743;52.262;6.172;2022-08-21T07:01:10;10.38;;;5.03;;
24585;SDS011;12743;52.262;6.172;2022-08-21T07:03:37;12.73;;;5.50;;
24585;SDS011;12743;52.262;6.172;2022-08-21T07:06:07;13.17;;;5.83;;
24585;SDS011;12743;52.262;6.172;2022-08-21T07:08:34;13.35;;;5.45;;
24585;SDS011;12743;52.262;6.172;2022-08-21T07:11:01;14.77;;;5.22;;
24585;SDS011;12743;52.262;6.172;2022-08-21T07:13:29;12.50;;;4.70;;
24585;SDS011;12743;52.262;6.172;2022-08-21T07:15:54;10.20;;;4.00;;
24585;SDS011;12743;52.262;6.172;2022-08-21T07:18:20;8.57;;;4.07;;
24585;SDS011;12743;52.262;6.172;2022-08-21T07:20:45;13.65;;;4.90;;
24585;SDS011;12743;52.262;6.172;2022-08-21T07:25:56;11.77;;;4.20;;
24585;SDS011;12743;52.262;6.172;2022-08-21T07:28:24;10.50;;;3.50;;
24585;SDS011;12743;52.262;6.172;2022-08-21T07:30:50;11.90;;;3.80;;
24585;SDS011;12743;52.262;6.172;2022-08-21T07:33:17;11.05;;;3.50;;
24585;SDS011;12743;52.262;6.172;2022-08-21T07:35:43;12.20;;;3.33;;
24585;SDS011;12743;52.262;6.172;2022-08-21T07:38:08;9.38;;;4.28;;
24585;SDS011;12743;52.262;6.172;2022-08-21T07:40:34;10.23;;;3.77;;
24585;SDS011;12743;52.262;6.172;2022-08-21T07:42:59;8.93;;;3.53;;
24585;SDS011;12743;52.262;6.172;2022-08-21T07:45:25;11.07;;;4.50;;
24585;SDS011;12743;52.262;6.172;2022-08-21T07:47:51;13.93;;;4.73;;
24585;SDS011;12743;52.262;6.172;2022-08-21T07:50:17;10.35;;;3.65;;
24585;SDS011;12743;52.262;6.172;2022-08-21T07:52:43;11.00;;;3.65;;
24585;SDS011;12743;52.262;6.172;2022-08-21T07:55:09;10.73;;;3.67;;
24585;SDS011;12743;52.262;6.172;2022-08-21T07:57:36;8.02;;;2.60;;
24585;SDS011;12743;52.262;6.172;2022-08-21T08:00:03;10.95;;;2.90;;
24585;SDS011;12743;52.262;6.172;2022-08-21T08:02:37;9.20;;;2.27;;
24585;SDS011;12743;52.262;6.172;2022-08-21T08:05:04;7.57;;;1.90;;
24585;SDS011;12743;52.262;6.172;2022-08-21T08:07:32;8.65;;;2.08;;
24585;SDS011;12743;52.262;6.172;2022-08-21T08:09:59;10.90;;;1.80;;
24585;SDS011;12743;52.262;6.172;2022-08-21T08:12:25;6.68;;;1.85;;
24585;SDS011;12743;52.262;6.172;2022-08-21T08:14:58;7.60;;;2.00;;
24585;SDS011;12743;52.262;6.172;2022-08-21T08:17:25;9.52;;;1.70;;
24585;SDS011;12743;52.262;6.172;2022-08-21T08:19:51;11.23;;;1.92;;
24585;SDS011;12743;52.262;6.172;2022-08-21T08:22:17;9.93;;;1.63;;
24585;SDS011;12743;52.262;6.172;2022-08-21T08:24:44;9.30;;;1.65;;
24585;SDS011;12743;52.262;6.172;2022-08-21T08:27:10;8.13;;;1.30;;
24585;SDS011;12743;52.262;6.172;2022-08-21T08:29:36;7.57;;;1.45;;
24585;SDS011;12743;52.262;6.172;2022-08-21T08:32:02;8.10;;;1.57;;
24585;SDS011;12743;52.262;6.172;2022-08-21T08:34:29;7.15;;;1.30;;
24585;SDS011;12743;52.262;6.172;2022-08-21T08:36:55;6.60;;;1.40;;
24585;SDS011;12743;52.262;6.172;2022-08-21T08:39:23;8.27;;;1.37;;
24585;SDS011;12743;52.262;6.172;2022-08-21T08:41:48;7.80;;;1.05;;
24585;SDS011;12743;52.262;6.172;2022-08-21T08:44:16;4.00;;;1.20;;
24585;SDS011;12743;52.262;6.172;2022-08-21T08:46:44;4.33;;;1.00;;
24585;SDS011;12743;52.262;6.172;2022-08-21T08:54:25;9.05;;;1.30;;
24585;SDS011;12743;52.262;6.172;2022-08-21T08:56:58;9.17;;;1.10;;
24585;SDS011;12743;52.262;6.172;2022-08-21T09:02:21;3.92;;;0.85;;
24585;SDS011;12743;52.262;6.172;2022-08-21T09:04:52;7.57;;;0.93;;
24585;SDS011;12743;52.262;6.172;2022-08-21T09:07:29;7.90;;;1.40;;
24585;SDS011;12743;52.262;6.172;2022-08-21T09:21:24;6.93;;;1.50;;
24585;SDS011;12743;52.262;6.172;2022-08-21T09:26:37;9.55;;;1.08;;
24585;SDS011;12743;52.262;6.172;2022-08-21T09:29:12;6.35;;;1.27;;
24585;SDS011;12743;52.262;6.172;2022-08-21T09:31:38;7.67;;;1.30;;
24585;SDS011;12743;52.262;6.172;2022-08-21T09:34:04;6.10;;;1.17;;
24585;SDS011;12743;52.262;6.172;2022-08-21T09:36:49;6.68;;;1.30;;
24585;SDS011;12743;52.262;6.172;2022-08-21T09:39:30;5.80;;;1.27;;
24585;SDS011;12743;52.262;6.172;2022-08-21T09:42:01;9.07;;;1.23;;
24585;SDS011;12743;52.262;6.172;2022-08-21T09:44:36;8.27;;;1.33;;
24585;SDS011;12743;52.262;6.172;2022-08-21T09:47:06;7.70;;;1.00;;
24585;SDS011;12743;52.262;6.172;2022-08-21T09:49:37;7.97;;;1.30;;
24585;SDS011;12743;52.262;6.172;2022-08-21T09:52:13;7.38;;;1.50;;
24585;SDS011;12743;52.262;6.172;2022-08-21T09:54:51;5.20;;;1.15;;
24585;SDS011;12743;52.262;6.172;2022-08-21T09:57:23;6.85;;;1.23;;
24585;SDS011;12743;52.262;6.172;2022-08-21T10:00:31;9.90;;;1.20;;
24585;SDS011;12743;52.262;6.172;2022-08-21T10:05:35;7.13;;;1.00;;
24585;SDS011;12743;52.262;6.172;2022-08-21T10:08:01;7.53;;;1.20;;
24585;SDS011;12743;52.262;6.172;2022-08-21T10:10:30;8.35;;;1.38;;
24585;SDS011;12743;52.262;6.172;2022-08-21T10:12:59;9.67;;;1.57;;
24585;SDS011;12743;52.262;6.172;2022-08-21T10:19:06;5.30;;;0.90;;
24585;SDS011;12743;52.262;6.172;2022-08-21T10:27:49;5.40;;;0.97;;
24585;SDS011;12743;52.262;6.172;2022-08-21T10:36:13;7.88;;;1.20;;
24585;SDS011;12743;52.262;6.172;2022-08-21T10:44:27;7.15;;;1.52;;
24585;SDS011;12743;52.262;6.172;2022-08-21T10:47:06;6.97;;;1.10;;
24585;SDS011;12743;52.262;6.172;2022-08-21T10:49:51;8.68;;;1.25;;
24585;SDS011;12743;52.262;6.172;2022-08-21T10:55:17;7.70;;;1.30;;
24585;SDS011;12743;52.262;6.172;2022-08-21T10:58:00;4.80;;;1.00;;
24585;SDS011;12743;52.262;6.172;2022-08-21T11:00:33;8.35;;;1.17;;
24585;SDS011;12743;52.262;6.172;2022-08-21T11:03:12;7.57;;;1.25;;
24585;SDS011;12743;52.262;6.172;2022-08-21T11:05:51;8.27;;;1.35;;
24585;SDS011;12743;52.262;6.172;2022-08-21T11:08:23;7.90;;;0.83;;
24585;SDS011;12743;52.262;6.172;2022-08-21T11:10:53;7.38;;;1.38;;
24585;SDS011;12743;52.262;6.172;2022-08-21T11:13:26;6.32;;;1.15;;
24585;SDS011;12743;52.262;6.172;2022-08-21T11:18:58;6.72;;;1.10;;
24585;SDS011;12743;52.262;6.172;2022-08-21T11:27:32;7.00;;;1.48;;
24585;SDS011;12743;52.262;6.172;2022-08-21T11:30:04;6.47;;;1.20;;
24585;SDS011;12743;52.262;6.172;2022-08-21T11:40:54;6.10;;;1.20;;
24585;SDS011;12743;52.262;6.172;2022-08-21T11:46:20;5.28;;;1.25;;
24585;SDS011;12743;52.262;6.172;2022-08-21T11:49:06;6.10;;;1.20;;
24585;SDS011;12743;52.262;6.172;2022-08-21T11:54:54;5.97;;;1.20;;
24585;SDS011;12743;52.262;6.172;2022-08-21T11:57:25;5.80;;;1.27;;
24585;SDS011;12743;52.262;6.172;2022-08-21T12:02:18;6.17;;;1.10;;
24585;SDS011;12743;52.262;6.172;2022-08-21T12:04:54;5.55;;;0.95;;
24585;SDS011;12743;52.262;6.172;2022-08-21T12:07:32;8.27;;;1.40;;
24585;SDS011;12743;52.262;6.172;2022-08-21T12:10:00;7.47;;;1.13;;
24585;SDS011;12743;52.262;6.172;2022-08-21T12:12:33;9.07;;;1.45;;
24585;SDS011;12743;52.262;6.172;2022-08-21T12:17:51;8.82;;;1.75;;
24585;SDS011;12743;52.262;6.172;2022-08-21T12:20:42;6.10;;;1.10;;
24585;SDS011;12743;52.262;6.172;2022-08-21T12:23:29;5.82;;;1.20;;
24585;SDS011;12743;52.262;6.172;2022-08-21T12:26:28;5.50;;;1.00;;
24585;SDS011;12743;52.262;6.172;2022-08-21T12:29:07;7.10;;;1.38;;
24585;SDS011;12743;52.262;6.172;2022-08-21T12:31:47;6.80;;;1.75;;
24585;SDS011;12743;52.262;6.172;2022-08-21T12:34:15;7.83;;;2.33;;
24585;SDS011;12743;52.262;6.172;2022-08-21T12:36:45;7.05;;;1.25;;
24585;SDS011;12743;52.262;6.172;2022-08-21T12:39:17;7.18;;;1.48;;
24585;SDS011;12743;52.262;6.172;2022-08-21T12:45:20;6.32;;;1.50;;
24585;SDS011;12743;52.262;6.172;2022-08-21T12:48:05;5.07;;;1.37;;
24585;SDS011;12743;52.262;6.172;2022-08-21T12:50:35;9.63;;;1.70;;
24585;SDS011;12743;52.262;6.172;2022-08-21T12:55:47;6.03;;;1.42;;
24585;SDS011;12743;52.262;6.172;2022-08-21T12:58:19;5.73;;;1.60;;
24585;SDS011;12743;52.262;6.172;2022-08-21T13:00:55;8.32;;;1.70;;
24585;SDS011;12743;52.262;6.172;2022-08-21T13:03:25;8.73;;;1.67;;
24585;SDS011;12743;52.262;6.172;2022-08-21T13:05:50;4.73;;;1.33;;
24585;SDS011;12743;52.262;6.172;2022-08-21T13:08:18;8.48;;;2.03;;
24585;SDS011;12743;52.262;6.172;2022-08-21T13:10:45;7.82;;;2.00;;
24585;SDS011;12743;52.262;6.172;2022-08-21T13:13:17;9.65;;;1.98;;
24585;SDS011;12743;52.262;6.172;2022-08-21T13:15:47;7.65;;;2.20;;
24585;SDS011;12743;52.262;6.172;2022-08-21T13:18:20;7.07;;;1.80;;
24585;SDS011;12743;52.262;6.172;2022-08-21T13:20:47;5.70;;;1.60;;
24585;SDS011;12743;52.262;6.172;2022-08-21T13:23:24;7.40;;;1.60;;
24585;SDS011;12743;52.262;6.172;2022-08-21T13:25:55;6.75;;;1.70;;
24585;SDS011;12743;52.262;6.172;2022-08-21T13:28:21;21.20;;;2.60;;
24585;SDS011;12743;52.262;6.172;2022-08-21T13:30:48;24.90;;;2.90;;
24585;SDS011;12743;52.262;6.172;2022-08-21T13:33:17;13.15;;;2.00;;
24585;SDS011;12743;52.262;6.172;2022-08-21T13:38:36;6.93;;;1.88;;
24585;SDS011;12743;52.262;6.172;2022-08-21T13:41:20;7.90;;;1.90;;
24585;SDS011;12743;52.262;6.172;2022-08-21T13:43:50;6.70;;;1.63;;
24585;SDS011;12743;52.262;6.172;2022-08-21T13:46:24;6.97;;;1.98;;
24585;SDS011;12743;52.262;6.172;2022-08-21T13:48:52;7.55;;;2.15;;
24585;SDS011;12743;52.262;6.172;2022-08-21T13:51:19;6.45;;;1.70;;
24585;SDS011;12743;52.262;6.172;2022-08-21T13:53:46;9.67;;;2.10;;
24585;SDS011;12743;52.262;6.172;2022-08-21T13:58:54;7.40;;;1.83;;
24585;SDS011;12743;52.262;6.172;2022-08-21T14:01:26;7.43;;;1.80;;
24585;SDS011;12743;52.262;6.172;2022-08-21T14:03:57;8.27;;;2.08;;
24585;SDS011;12743;52.262;6.172;2022-08-21T14:06:33;9.40;;;2.10;;
24585;SDS011;12743;52.262;6.172;2022-08-21T14:09:07;7.32;;;2.13;;
24585;SDS011;12743;52.262;6.172;2022-08-21T14:11:35;5.40;;;1.70;;
24585;SDS011;12743;52.262;6.172;2022-08-21T14:14:03;7.88;;;1.70;;
24585;SDS011;12743;52.262;6.172;2022-08-21T14:16:45;6.90;;;1.42;;
24585;SDS011;12743;52.262;6.172;2022-08-21T14:21:48;6.63;;;1.30;;
24585;SDS011;12743;52.262;6.172;2022-08-21T14:24:25;7.20;;;1.77;;
24585;SDS011;12743;52.262;6.172;2022-08-21T14:26:57;4.80;;;1.45;;
24585;SDS011;12743;52.262;6.172;2022-08-21T14:29:32;5.85;;;1.38;;
24585;SDS011;12743;52.262;6.172;2022-08-21T14:32:27;6.20;;;1.25;;
24585;SDS011;12743;52.262;6.172;2022-08-21T14:34:56;6.40;;;1.80;;
24585;SDS011;12743;52.262;6.172;2022-08-21T14:37:22;9.13;;;1.80;;
24585;SDS011;12743;52.262;6.172;2022-08-21T14:39:49;6.90;;;1.55;;
24585;SDS011;12743;52.262;6.172;2022-08-21T14:42:14;7.57;;;1.80;;
24585;SDS011;12743;52.262;6.172;2022-08-21T14:44:43;7.53;;;1.70;;
24585;SDS011;12743;52.262;6.172;2022-08-21T14:47:09;6.67;;;1.60;;
24585;SDS011;12743;52.262;6.172;2022-08-21T14:49:34;5.80;;;1.20;;
24585;SDS011;12743;52.262;6.172;2022-08-21T14:52:03;3.93;;;1.37;;
24585;SDS011;12743;52.262;6.172;2022-08-21T14:54:32;7.90;;;1.55;;
24585;SDS011;12743;52.262;6.172;2022-08-21T14:56:59;5.10;;;1.53;;
24585;SDS011;12743;52.262;6.172;2022-08-21T14:59:27;6.13;;;1.77;;
24585;SDS011;12743;52.262;6.172;2022-08-21T15:01:53;7.07;;;1.77;;
24585;SDS011;12743;52.262;6.172;2022-08-21T15:04:18;6.03;;;1.73;;
24585;SDS011;12743;52.262;6.172;2022-08-21T15:06:43;8.70;;;2.37;;
24585;SDS011;12743;52.262;6.172;2022-08-21T15:09:09;6.60;;;2.30;;
24585;SDS011;12743;52.262;6.172;2022-08-21T15:11:34;5.73;;;2.40;;
24585;SDS011;12743;52.262;6.172;2022-08-21T15:14:01;6.53;;;2.22;;
24585;SDS011;12743;52.262;6.172;2022-08-21T15:16:29;7.93;;;2.40;;
24585;SDS011;12743;52.262;6.172;2022-08-21T15:18:56;8.10;;;2.23;;
24585;SDS011;12743;52.262;6.172;2022-08-21T15:21:23;12.93;;;2.42;;
24585;SDS011;12743;52.262;6.172;2022-08-21T15:23:48;8.30;;;2.50;;
24585;SDS011;12743;52.262;6.172;2022-08-21T15:26:14;6.97;;;2.30;;
24585;SDS011;12743;52.262;6.172;2022-08-21T15:28:39;9.90;;;2.67;;
24585;SDS011;12743;52.262;6.172;2022-08-21T15:31:05;10.32;;;2.20;;
24585;SDS011;12743;52.262;6.172;2022-08-21T15:33:30;9.93;;;2.03;;
24585;SDS011;12743;52.262;6.172;2022-08-21T15:35:56;10.90;;;2.10;;
24585;SDS011;12743;52.262;6.172;2022-08-21T15:38:22;7.75;;;2.40;;
24585;SDS011;12743;52.262;6.172;2022-08-21T15:40:48;9.60;;;2.17;;
24585;SDS011;12743;52.262;6.172;2022-08-21T15:43:18;8.60;;;2.08;;
24585;SDS011;12743;52.262;6.172;2022-08-21T15:45:48;9.87;;;1.90;;
24585;SDS011;12743;52.262;6.172;2022-08-21T15:48:14;8.43;;;2.10;;
24585;SDS011;12743;52.262;6.172;2022-08-21T15:50:39;7.30;;;2.13;;
24585;SDS011;12743;52.262;6.172;2022-08-21T15:53:04;8.17;;;1.90;;
24585;SDS011;12743;52.262;6.172;2022-08-21T15:55:32;9.38;;;2.13;;
24585;SDS011;12743;52.262;6.172;2022-08-21T15:57:58;8.73;;;1.50;;
24585;SDS011;12743;52.262;6.172;2022-08-21T16:00:23;8.35;;;1.90;;
24585;SDS011;12743;52.262;6.172;2022-08-21T16:02:51;6.80;;;1.70;;
24585;SDS011;12743;52.262;6.172;2022-08-21T16:05:18;9.40;;;2.20;;
24585;SDS011;12743;52.262;6.172;2022-08-21T16:07:46;8.00;;;1.50;;
24585;SDS011;12743;52.262;6.172;2022-08-21T16:10:14;6.97;;;2.20;;
24585;SDS011;12743;52.262;6.172;2022-08-21T16:12:43;13.13;;;1.90;;
24585;SDS011;12743;52.262;6.172;2022-08-21T16:15:13;7.55;;;1.63;;
24585;SDS011;12743;52.262;6.172;2022-08-21T16:17:40;5.82;;;1.33;;
24585;SDS011;12743;52.262;6.172;2022-08-21T16:20:11;5.60;;;1.30;;
24585;SDS011;12743;52.262;6.172;2022-08-21T16:22:39;26.17;;;6.30;;
24585;SDS011;12743;52.262;6.172;2022-08-21T16:25:04;8.75;;;2.25;;
24585;SDS011;12743;52.262;6.172;2022-08-21T16:27:31;8.37;;;1.97;;
24585;SDS011;12743;52.262;6.172;2022-08-21T16:29:57;4.93;;;1.45;;
24585;SDS011;12743;52.262;6.172;2022-08-21T16:32:22;6.65;;;1.60;;
24585;SDS011;12743;52.262;6.172;2022-08-21T16:34:48;7.27;;;1.17;;